Califon, NJ (07830)

12:59 PM EDT on August 04, 2015 (GMT -0400)
Middle Valley | | Change Station
CLOSE
Current Station
Personal Weather Station
Location: Washington Twp Morris County, NJ
Elevation: 507 ft
Nearby Weather Stations

Elev 507 ft 40.74 °N, 74.82 °W | Updated 8 seconds ago

Clear
Clear
82.5 °F
Feels Like 85 °F
N
2.0
Wind Variable Wind from West
Gusts 10.0 mph

Today
High -- | Low -- °F
--% Chance of Precip.
Yesterday
High -- | Low -- °F
Precip. -- in
5:58 AM 8:11 PM
Waning Gibbous, 76% visible
Pressure 29.84 in
Visibility 10.0 miles
Clouds Scattered Clouds 4700 ft
Scattered Clouds 5500 ft
Heat Index 85 °F
Dew Point 67 °F
Humidity 60%
Rainfall 0.25 in
Snow Depth Not available.
UV 9 out of 12
Pollen 7.90 out of 12
Air Quality Not available.
Flu Activity Not available.
METAR KSMQ 041653Z AUTO VRB06KT 10SM SCT047 SCT055 31/19 A2985 RMK AO2 SLP105 T03060189

More Conditions Fewer Conditions

Pressure 29.84 in
Visibility 10.0 miles
Clouds Scattered Clouds 4700 ft
Scattered Clouds 5500 ft
Heat Index 85 °F
Dew Point 67 °F
Humidity 60%
Rainfall 0.25 in
Snow Depth Not available.
UV 9 out of 12
Pollen 7.90 out of 12
Air Quality Not available.
Flu Activity Not available.
METAR KSMQ 041653Z AUTO VRB06KT 10SM SCT047 SCT055 31/19 A2985 RMK AO2 SLP105 T03060189

More Conditions Fewer Conditions

10-Day Weather Forecast

×

Almanac

Astronomy

Aug. 04, 2015 Rise Set
Actual Time
Civil Twilight
Nautical Twilight
Astronomical Twilight
Moon
Length of Visible Light
Length of Day
Tomorrow will be .
, % of the Moon is Illuminated

Today's Extremes

State Highs State Lows

Community

WunderPhotos

Upload Photos

1,843,920 photos uploaded!

WunderBlogs® & News

Nearby

Air Quality

  Air Quality AQ Index Pollutant
Not available.

Snow Depth

Station Depth Elevation

Earthquake Activity

City Distance Mag. Time & Date
Minimum magnitude displayed is 2.5.

Coastal Water Temperatures

Place Temperature

Stations

Nearby Weather Stations

Station Location Temp. Windchill Dew Point Humidity Wind Precip. Elev Updated Type